createdAt,value
2018-06-30T00:00:08.135Z,99.90
2018-06-30T00:02:43.483Z,99.90
2018-06-30T00:05:19.162Z,99.90
2018-06-30T00:07:54.874Z,99.90
2018-06-30T00:10:31.429Z,99.90
2018-06-30T00:13:06.938Z,99.90
2018-06-30T00:15:42.370Z,99.90
2018-06-30T00:18:17.731Z,99.90
2018-06-30T00:20:53.666Z,99.90
2018-06-30T00:23:29.154Z,99.90
2018-06-30T00:26:04.670Z,99.90
2018-06-30T00:28:40.108Z,99.90
2018-06-30T00:31:15.881Z,99.90
2018-06-30T00:33:51.271Z,99.90
2018-06-30T00:36:26.696Z,99.90
2018-06-30T00:39:02.019Z,99.90
2018-06-30T00:41:37.534Z,99.90
2018-06-30T00:46:48.526Z,99.90
2018-06-30T00:52:00.036Z,99.90
2018-06-30T00:54:35.795Z,99.90
2018-06-30T00:57:11.131Z,99.90
2018-06-30T00:59:46.678Z,99.90
2018-06-30T01:02:22.321Z,99.90
2018-06-30T01:04:57.791Z,99.90
2018-06-30T01:07:33.426Z,99.90
2018-06-30T01:10:08.723Z,99.90
2018-06-30T01:12:44.310Z,99.90
2018-06-30T01:15:19.506Z,99.90
2018-06-30T01:17:55.068Z,99.90
2018-06-30T01:20:30.362Z,99.90
2018-06-30T01:23:06.324Z,99.90
2018-06-30T01:25:41.764Z,99.90
2018-06-30T01:28:17.285Z,99.90
2018-06-30T01:30:52.755Z,99.90
2018-06-30T01:33:28.482Z,99.90
2018-06-30T01:36:03.951Z,99.90
2018-06-30T01:38:39.374Z,99.90
2018-06-30T01:41:14.832Z,99.90
2018-06-30T01:43:50.274Z,99.90
2018-06-30T01:46:25.506Z,99.90
2018-06-30T01:49:00.886Z,99.90
2018-06-30T01:51:36.111Z,99.90
2018-06-30T01:56:46.888Z,99.90
2018-06-30T01:59:22.838Z,99.90
2018-06-30T02:01:58.323Z,99.90
2018-06-30T02:04:33.859Z,99.90
2018-06-30T02:07:09.066Z,99.90
2018-06-30T02:09:44.615Z,99.90
2018-06-30T02:12:20.114Z,99.90
2018-06-30T02:14:55.810Z,99.90
2018-06-30T02:17:31.163Z,99.90
2018-06-30T02:20:06.715Z,99.90
2018-06-30T02:22:42.230Z,99.90
2018-06-30T02:25:17.899Z,99.90
2018-06-30T02:27:53.367Z,99.90
2018-06-30T02:30:28.814Z,99.90
2018-06-30T02:35:39.579Z,99.90
2018-06-30T02:38:15.065Z,99.90
2018-06-30T02:40:50.496Z,99.90
2018-06-30T02:43:25.941Z,99.90
2018-06-30T02:46:01.543Z,99.90
2018-06-30T02:48:36.772Z,99.90
2018-06-30T02:51:12.351Z,99.90
2018-06-30T02:53:47.847Z,99.90
2018-06-30T02:56:23.553Z,99.90
2018-06-30T02:59:02.042Z,99.90
2018-06-30T03:01:37.826Z,99.90
2018-06-30T03:04:13.327Z,99.90
2018-06-30T03:06:48.822Z,99.90
2018-06-30T03:11:59.394Z,99.90
2018-06-30T03:14:35.249Z,99.90
2018-06-30T03:17:10.998Z,99.90
2018-06-30T03:19:46.343Z,99.90
2018-06-30T03:22:21.789Z,99.90
2018-06-30T03:24:58.126Z,99.90
2018-06-30T03:27:33.706Z,99.90
2018-06-30T03:30:09.227Z,99.90
2018-06-30T03:32:45.005Z,99.90
2018-06-30T03:35:20.482Z,99.90
2018-06-30T03:37:56.102Z,99.90
2018-06-30T03:40:31.603Z,99.90
2018-06-30T03:43:07.290Z,99.90
2018-06-30T03:45:42.781Z,99.90
2018-06-30T03:48:18.413Z,99.90
2018-06-30T03:50:53.719Z,99.90
2018-06-30T03:53:29.229Z,99.90
2018-06-30T03:56:04.511Z,99.90
2018-06-30T03:58:40.066Z,99.90
2018-06-30T04:01:15.515Z,99.90
2018-06-30T04:03:51.262Z,99.90
2018-06-30T04:06:26.716Z,99.90
2018-06-30T04:09:02.281Z,99.90
2018-06-30T04:11:37.994Z,99.90
2018-06-30T04:14:13.459Z,99.90
2018-06-30T04:16:48.962Z,99.90
2018-06-30T04:19:24.452Z,99.90
2018-06-30T04:21:59.715Z,99.90
2018-06-30T04:24:35.239Z,99.90
2018-06-30T04:27:10.715Z,99.90
2018-06-30T04:29:46.123Z,99.90
2018-06-30T04:32:21.581Z,99.90
2018-06-30T04:34:57.141Z,99.90
2018-06-30T04:37:32.507Z,99.90
2018-06-30T04:40:08.115Z,99.90
2018-06-30T04:42:43.591Z,99.90
2018-06-30T04:45:19.350Z,99.90
2018-06-30T04:47:57.745Z,99.90
2018-06-30T04:50:33.387Z,99.90
2018-06-30T04:53:08.892Z,99.90
2018-06-30T04:55:44.661Z,99.90
2018-06-30T04:58:20.112Z,99.90
2018-06-30T05:03:31.026Z,99.90
2018-06-30T05:06:06.547Z,99.90
2018-06-30T05:08:41.963Z,99.90
2018-06-30T05:13:52.631Z,95.90
2018-06-30T05:16:28.134Z,94.00
2018-06-30T05:19:03.643Z,93.10
2018-06-30T05:21:39.202Z,92.40
2018-06-30T05:24:14.694Z,91.90
2018-06-30T05:26:50.236Z,90.20
2018-06-30T05:29:25.745Z,88.20
2018-06-30T05:32:01.523Z,86.00
2018-06-30T05:34:43.435Z,82.40
2018-06-30T05:37:19.170Z,80.40
2018-06-30T05:39:55.046Z,76.60
2018-06-30T05:42:30.784Z,78.50
2018-06-30T05:45:06.527Z,76.80
2018-06-30T05:47:42.178Z,75.10
2018-06-30T05:50:17.443Z,76.50
2018-06-30T05:52:53.080Z,74.70
2018-06-30T05:55:28.378Z,75.60
2018-06-30T06:00:39.210Z,75.10
2018-06-30T06:03:14.769Z,75.90
2018-06-30T06:05:50.203Z,75.80
2018-06-30T06:08:25.761Z,71.70
2018-06-30T06:11:01.058Z,74.30
2018-06-30T06:13:36.585Z,72.40
2018-06-30T06:16:12.000Z,74.40
2018-06-30T06:18:47.723Z,75.30
2018-06-30T06:21:23.227Z,75.20
2018-06-30T06:23:58.758Z,74.00
2018-06-30T06:26:34.231Z,74.30
2018-06-30T06:29:09.714Z,75.10
2018-06-30T06:31:45.195Z,71.70
2018-06-30T06:34:20.703Z,70.80
2018-06-30T06:36:56.438Z,71.90
2018-06-30T06:39:31.910Z,74.30
2018-06-30T06:42:07.259Z,72.90
2018-06-30T06:44:43.018Z,73.10
2018-06-30T06:47:18.318Z,72.00
2018-06-30T06:49:54.094Z,71.60
2018-06-30T06:52:29.334Z,71.90
2018-06-30T06:55:04.780Z,69.60
2018-06-30T06:57:40.259Z,70.20
2018-06-30T07:00:15.980Z,71.40
2018-06-30T07:02:51.402Z,71.30
2018-06-30T07:05:27.200Z,71.50
2018-06-30T07:08:03.481Z,71.80
2018-06-30T07:10:38.951Z,73.90
2018-06-30T07:13:15.419Z,71.40
2018-06-30T07:15:51.008Z,69.60
2018-06-30T07:18:26.359Z,69.70
2018-06-30T07:21:01.792Z,70.10
2018-06-30T07:23:37.310Z,66.30
2018-06-30T07:26:12.986Z,68.00
2018-06-30T07:28:48.479Z,70.30
2018-06-30T07:31:23.981Z,69.50
2018-06-30T07:33:59.540Z,67.60
2018-06-30T07:36:35.383Z,69.20
2018-06-30T07:39:10.877Z,70.00
2018-06-30T07:41:46.379Z,69.00
2018-06-30T07:44:21.939Z,68.30
2018-06-30T07:46:57.575Z,66.20
2018-06-30T07:49:33.070Z,69.20
2018-06-30T07:52:08.643Z,63.70
2018-06-30T07:54:43.874Z,64.70
2018-06-30T07:57:19.327Z,67.30
2018-06-30T07:59:54.795Z,68.80
2018-06-30T08:02:30.347Z,69.10
2018-06-30T08:05:06.080Z,67.90
2018-06-30T08:07:41.643Z,66.60
2018-06-30T08:12:52.541Z,67.60
2018-06-30T08:15:28.019Z,70.40
2018-06-30T08:18:03.535Z,70.30
2018-06-30T08:20:38.992Z,72.80
2018-06-30T08:23:14.521Z,73.80
2018-06-30T08:25:49.823Z,76.50
2018-06-30T08:28:25.506Z,75.90
2018-06-30T08:31:01.027Z,76.60
2018-06-30T08:36:11.929Z,74.70
2018-06-30T08:38:47.805Z,74.80
2018-06-30T08:41:23.611Z,75.70
2018-06-30T08:43:59.209Z,77.40
2018-06-30T08:46:34.730Z,79.00
2018-06-30T08:49:10.701Z,82.60
2018-06-30T08:51:46.716Z,78.10
2018-06-30T08:54:22.320Z,78.80
2018-06-30T08:56:57.889Z,79.80
2018-06-30T08:59:33.662Z,79.80
2018-06-30T09:02:09.031Z,77.20
2018-06-30T09:04:44.513Z,81.40
2018-06-30T09:07:19.942Z,80.40
2018-06-30T09:09:55.605Z,79.10
2018-06-30T09:12:31.113Z,80.10
2018-06-30T09:15:06.799Z,81.10
2018-06-30T09:17:42.147Z,81.70
2018-06-30T09:20:17.624Z,84.80
2018-06-30T09:22:53.110Z,83.30
2018-06-30T09:25:29.070Z,84.10
2018-06-30T09:28:04.340Z,82.60
2018-06-30T09:30:40.177Z,83.10
2018-06-30T09:33:15.960Z,82.50
2018-06-30T09:35:51.615Z,84.20
2018-06-30T09:38:27.223Z,82.80
2018-06-30T09:41:03.512Z,81.50
2018-06-30T09:43:38.917Z,81.60
2018-06-30T09:46:14.518Z,82.90
2018-06-30T09:48:50.026Z,84.20
2018-06-30T09:51:26.301Z,82.00
2018-06-30T09:54:02.055Z,82.40
2018-06-30T09:56:37.503Z,83.00
2018-06-30T09:59:13.026Z,81.90
2018-06-30T10:01:48.707Z,83.30
2018-06-30T10:04:24.181Z,82.60
2018-06-30T10:06:59.705Z,83.60
2018-06-30T10:09:35.266Z,85.70
2018-06-30T10:12:10.693Z,83.40
2018-06-30T10:14:45.932Z,82.30
2018-06-30T10:17:21.475Z,81.60
2018-06-30T10:19:56.847Z,81.80
2018-06-30T10:22:32.278Z,82.40
2018-06-30T10:25:07.638Z,83.20
2018-06-30T10:27:43.080Z,88.90
2018-06-30T10:32:53.843Z,82.90
2018-06-30T10:35:29.306Z,81.50
2018-06-30T10:38:11.384Z,82.80
2018-06-30T10:40:46.738Z,80.00
2018-06-30T10:43:22.170Z,80.70
2018-06-30T10:45:57.694Z,80.80
2018-06-30T10:48:33.281Z,78.60
2018-06-30T10:51:08.570Z,78.50
2018-06-30T10:53:44.272Z,77.30
2018-06-30T10:56:19.609Z,78.90
2018-06-30T10:58:55.353Z,80.40
2018-06-30T11:01:31.029Z,80.10
2018-06-30T11:04:06.670Z,82.10
2018-06-30T11:06:42.129Z,80.60
2018-06-30T11:09:17.678Z,78.50
2018-06-30T11:11:53.032Z,79.50
2018-06-30T11:14:28.657Z,80.30
2018-06-30T11:17:04.034Z,78.40
2018-06-30T11:19:39.886Z,81.00
2018-06-30T11:22:15.397Z,81.20
2018-06-30T11:24:50.831Z,82.80
2018-06-30T11:27:26.289Z,79.50
2018-06-30T11:30:01.929Z,80.20
2018-06-30T11:32:37.372Z,76.50
2018-06-30T11:35:13.026Z,76.80
2018-06-30T11:37:48.506Z,76.40
2018-06-30T11:40:23.923Z,78.10
2018-06-30T11:42:59.422Z,73.90
2018-06-30T11:45:35.210Z,73.70
2018-06-30T11:48:10.403Z,72.80
2018-06-30T11:50:46.216Z,75.20
2018-06-30T11:58:32.632Z,75.30
2018-06-30T12:01:08.495Z,74.80
2018-06-30T12:06:20.149Z,75.30
2018-06-30T12:11:30.838Z,74.70
2018-06-30T12:14:07.142Z,73.10
2018-06-30T12:16:42.810Z,74.20
2018-06-30T12:19:18.322Z,75.20
2018-06-30T12:21:53.717Z,74.20
2018-06-30T12:24:29.174Z,74.70
2018-06-30T12:27:04.795Z,74.30
2018-06-30T12:29:40.295Z,76.00
2018-06-30T12:32:15.732Z,76.00
2018-06-30T12:37:26.072Z,76.10
2018-06-30T12:40:01.503Z,76.90
2018-06-30T12:42:37.154Z,74.80
2018-06-30T12:45:12.720Z,72.90
2018-06-30T12:47:48.454Z,72.40
2018-06-30T12:50:23.666Z,71.90
2018-06-30T12:52:59.347Z,70.90
2018-06-30T12:55:34.702Z,70.80
2018-06-30T12:58:10.142Z,70.60
2018-06-30T13:00:45.714Z,72.70
2018-06-30T13:03:21.433Z,73.60
2018-06-30T13:05:56.867Z,74.40
2018-06-30T13:08:32.426Z,74.60
2018-06-30T13:11:07.889Z,75.80
2018-06-30T13:13:43.389Z,75.00
2018-06-30T13:16:18.835Z,76.30
2018-06-30T13:18:54.311Z,76.30
2018-06-30T13:21:29.836Z,74.40
2018-06-30T13:24:06.236Z,73.30
2018-06-30T13:26:41.702Z,72.10
2018-06-30T13:29:17.118Z,71.20
2018-06-30T13:31:52.335Z,72.70
2018-06-30T13:34:28.071Z,73.00
2018-06-30T13:37:03.459Z,71.70
2018-06-30T13:39:39.111Z,71.10
2018-06-30T13:42:14.278Z,71.10
2018-06-30T13:44:49.998Z,76.50
2018-06-30T13:47:25.406Z,74.20
2018-06-30T13:50:00.971Z,75.50
2018-06-30T13:52:36.446Z,76.00
2018-06-30T13:55:11.866Z,75.80
2018-06-30T14:00:22.790Z,72.30
2018-06-30T14:02:58.194Z,72.10
2018-06-30T14:05:33.754Z,70.20
2018-06-30T14:08:09.217Z,71.10
2018-06-30T14:10:44.850Z,71.30
2018-06-30T14:13:20.102Z,71.70
2018-06-30T14:15:55.646Z,72.30
2018-06-30T14:18:31.120Z,71.80
2018-06-30T14:21:06.754Z,72.50
2018-06-30T14:23:42.271Z,72.30
2018-06-30T14:26:17.951Z,74.40
2018-06-30T14:28:53.470Z,72.30
2018-06-30T14:31:29.235Z,74.70
2018-06-30T14:34:04.671Z,71.90
2018-06-30T14:36:40.322Z,73.00
2018-06-30T14:39:15.718Z,72.00
2018-06-30T14:41:51.547Z,72.10
2018-06-30T14:44:31.047Z,71.30
2018-06-30T14:49:42.055Z,70.60
2018-06-30T14:52:17.632Z,71.00
2018-06-30T14:54:53.150Z,73.10
2018-06-30T14:57:28.804Z,74.70
2018-06-30T15:00:04.864Z,73.50
2018-06-30T15:02:40.819Z,73.40
2018-06-30T15:05:16.287Z,72.70
2018-06-30T15:10:27.798Z,71.70
2018-06-30T15:13:03.244Z,72.90
2018-06-30T15:15:38.942Z,74.20
2018-06-30T15:18:14.510Z,74.50
2018-06-30T15:20:49.871Z,73.90
2018-06-30T15:23:25.429Z,75.00
2018-06-30T15:26:00.878Z,74.60
2018-06-30T15:28:36.374Z,72.20
2018-06-30T15:31:11.623Z,73.80
2018-06-30T15:33:47.078Z,74.20
2018-06-30T15:36:22.514Z,74.60
2018-06-30T15:38:58.070Z,75.10
2018-06-30T15:41:33.386Z,75.70
2018-06-30T15:44:09.070Z,74.50
2018-06-30T15:49:19.750Z,73.40
2018-06-30T15:51:55.237Z,73.60
2018-06-30T15:54:30.748Z,73.00
2018-06-30T15:57:06.781Z,70.90
2018-06-30T15:59:42.774Z,71.50
2018-06-30T16:02:18.126Z,72.90
2018-06-30T16:04:53.662Z,72.30
2018-06-30T16:07:29.122Z,72.70
2018-06-30T16:10:04.938Z,71.70
2018-06-30T16:12:40.082Z,71.80
2018-06-30T16:15:16.156Z,72.30
2018-06-30T16:17:52.127Z,72.00
2018-06-30T16:20:27.764Z,71.60
2018-06-30T16:23:03.394Z,71.70
2018-06-30T16:25:38.749Z,70.50
2018-06-30T16:28:14.210Z,71.40
2018-06-30T16:30:49.957Z,72.10
2018-06-30T16:33:25.373Z,71.90
2018-06-30T16:36:00.770Z,72.20
2018-06-30T16:38:36.303Z,71.90
2018-06-30T16:41:11.974Z,72.10
2018-06-30T16:43:47.313Z,71.70
2018-06-30T16:46:23.557Z,71.50
2018-06-30T16:48:59.023Z,72.20
2018-06-30T16:51:34.431Z,72.50
2018-06-30T16:54:09.854Z,72.40
2018-06-30T16:56:45.430Z,72.70
2018-06-30T16:59:20.781Z,72.40
2018-06-30T17:01:56.311Z,72.30
2018-06-30T17:07:07.931Z,71.70
2018-06-30T17:09:43.293Z,72.10
2018-06-30T17:12:19.422Z,72.70
2018-06-30T17:14:54.909Z,73.00
2018-06-30T17:17:30.464Z,73.90
2018-06-30T17:20:05.737Z,74.10
2018-06-30T17:22:41.426Z,75.30
2018-06-30T17:25:16.942Z,74.50
2018-06-30T17:27:52.411Z,75.10
2018-06-30T17:33:03.371Z,75.50
2018-06-30T17:35:38.834Z,76.30
2018-06-30T17:38:14.292Z,76.60
2018-06-30T17:40:49.766Z,76.70
2018-06-30T17:43:25.392Z,75.70
2018-06-30T17:46:00.893Z,75.90
2018-06-30T17:48:36.563Z,76.70
2018-06-30T17:51:11.816Z,76.40
2018-06-30T17:53:47.466Z,76.40
2018-06-30T17:56:22.960Z,76.90
2018-06-30T17:58:59.586Z,77.30
2018-06-30T18:01:35.162Z,76.80
2018-06-30T18:04:10.600Z,76.50
2018-06-30T18:06:45.935Z,76.70
2018-06-30T18:09:21.566Z,76.90
2018-06-30T18:11:56.798Z,76.80
2018-06-30T18:14:32.265Z,77.30
2018-06-30T18:17:07.793Z,77.30
2018-06-30T18:19:43.250Z,78.20
2018-06-30T18:22:18.624Z,78.50
2018-06-30T18:24:54.037Z,79.00
2018-06-30T18:27:29.498Z,79.70
2018-06-30T18:30:05.751Z,80.00
2018-06-30T18:32:40.254Z,80.40
2018-06-30T18:35:15.924Z,81.10
2018-06-30T18:37:51.398Z,81.20
2018-06-30T18:40:27.223Z,82.10
2018-06-30T18:43:02.739Z,82.00
2018-06-30T18:48:13.378Z,82.00
2018-06-30T18:50:49.102Z,81.90
2018-06-30T18:53:24.324Z,82.80
2018-06-30T18:55:59.993Z,83.10
2018-06-30T18:58:35.363Z,83.20
2018-06-30T19:01:11.112Z,84.00
2018-06-30T19:03:46.543Z,83.80
2018-06-30T19:06:22.000Z,84.10
2018-06-30T19:08:57.320Z,84.10
2018-06-30T19:11:32.779Z,84.50
2018-06-30T19:14:08.919Z,85.00
2018-06-30T19:16:44.498Z,85.00
2018-06-30T19:19:20.032Z,85.90
2018-06-30T19:21:56.201Z,85.50
2018-06-30T19:24:31.625Z,85.40
2018-06-30T19:27:07.279Z,83.80
2018-06-30T19:29:42.450Z,82.10
2018-06-30T19:32:18.178Z,81.50
2018-06-30T19:34:53.693Z,82.70
2018-06-30T19:37:29.376Z,81.70
2018-06-30T19:40:05.147Z,82.40
2018-06-30T19:42:40.697Z,83.90
2018-06-30T19:45:16.135Z,83.60
2018-06-30T19:50:26.940Z,83.70
2018-06-30T19:53:02.737Z,84.80
2018-06-30T19:55:38.183Z,84.50
2018-06-30T19:58:14.051Z,85.40
2018-06-30T20:00:49.626Z,85.10
2018-06-30T20:03:25.171Z,86.00
2018-06-30T20:08:58.380Z,85.90
2018-06-30T20:11:33.718Z,86.30
2018-06-30T20:14:09.472Z,86.80
2018-06-30T20:16:44.716Z,87.40
2018-06-30T20:19:20.661Z,87.30
2018-06-30T20:21:56.029Z,87.50
2018-06-30T20:24:31.657Z,88.30
2018-06-30T20:27:07.207Z,88.50
2018-06-30T20:29:42.975Z,88.50
2018-06-30T20:32:19.068Z,89.50
2018-06-30T20:34:54.577Z,89.50
2018-06-30T20:37:30.127Z,90.00
2018-06-30T20:40:05.878Z,90.10
2018-06-30T20:42:41.347Z,90.10
2018-06-30T20:45:16.821Z,90.20
2018-06-30T20:47:52.263Z,90.30
2018-06-30T20:50:27.663Z,90.50
2018-06-30T20:53:03.147Z,90.80
2018-06-30T20:55:38.742Z,90.90
2018-06-30T20:58:14.212Z,90.90
2018-06-30T21:00:50.241Z,91.20
2018-06-30T21:03:25.758Z,91.40
2018-06-30T21:06:01.226Z,91.70
2018-06-30T21:08:36.780Z,91.70
2018-06-30T21:11:12.448Z,92.10
2018-06-30T21:13:47.783Z,92.40
2018-06-30T21:16:23.559Z,92.80
2018-06-30T21:18:58.924Z,92.80
2018-06-30T21:21:34.551Z,93.10
2018-06-30T21:24:09.959Z,93.10
2018-06-30T21:26:45.635Z,93.10
2018-06-30T21:29:21.180Z,93.30
2018-06-30T21:31:56.822Z,93.50
2018-06-30T21:34:35.332Z,93.60
2018-06-30T21:37:10.877Z,93.70
2018-06-30T21:39:46.347Z,93.90
2018-06-30T21:42:21.784Z,94.20
2018-06-30T21:44:57.312Z,94.30
2018-06-30T21:47:32.883Z,94.50
2018-06-30T21:50:08.596Z,94.70
2018-06-30T21:52:44.033Z,94.70
2018-06-30T22:00:48.791Z,95.20
2018-06-30T22:03:26.559Z,95.20
2018-06-30T22:06:02.193Z,95.60
2018-06-30T22:08:37.930Z,95.30
2018-06-30T22:13:48.835Z,95.80
2018-06-30T22:16:24.267Z,95.40
2018-06-30T22:21:35.635Z,95.60
2018-06-30T22:24:11.316Z,95.90
2018-06-30T22:26:46.668Z,95.90
2018-06-30T22:31:57.533Z,96.20
2018-06-30T22:34:33.295Z,96.60
2018-06-30T22:37:08.692Z,96.70
2018-06-30T22:40:22.915Z,97.00
2018-06-30T22:42:58.214Z,97.10
2018-06-30T22:45:33.805Z,97.50
2018-06-30T22:48:09.248Z,98.00
2018-06-30T22:50:44.892Z,97.90
2018-06-30T22:53:20.241Z,98.20
2018-06-30T22:58:30.953Z,99.00
2018-06-30T23:01:06.764Z,99.10
2018-06-30T23:03:42.126Z,99.40
2018-06-30T23:06:17.854Z,99.60
2018-06-30T23:08:53.473Z,99.90
2018-06-30T23:11:29.059Z,99.90
2018-06-30T23:14:04.534Z,99.90
2018-06-30T23:19:15.919Z,99.90
2018-06-30T23:21:51.342Z,99.90
2018-06-30T23:24:26.842Z,99.90
2018-06-30T23:27:02.238Z,99.90
2018-06-30T23:29:37.704Z,99.90
2018-06-30T23:32:13.231Z,99.90
2018-06-30T23:34:48.696Z,99.90
2018-06-30T23:37:24.351Z,99.90
2018-06-30T23:39:59.555Z,99.90
2018-06-30T23:42:35.031Z,99.90
2018-06-30T23:45:10.546Z,99.90
2018-06-30T23:47:46.317Z,99.90
2018-06-30T23:50:22.289Z,99.90
2018-06-30T23:52:57.914Z,99.90
2018-06-30T23:55:33.437Z,99.90
2018-06-30T23:58:09.012Z,99.90
